createdAt,value
2019-04-21T00:02:03.276Z,16.65
2019-04-21T00:07:25.064Z,16.57
2019-04-21T00:12:28.349Z,16.47
2019-04-21T00:17:17.783Z,16.47
2019-04-21T00:22:31.543Z,16.49
2019-04-21T00:27:38.290Z,16.57
2019-04-21T00:32:40.519Z,16.47
2019-04-21T00:37:52.184Z,16.26
2019-04-21T00:42:52.485Z,16.36
2019-04-21T00:47:57.746Z,16.31
2019-04-21T00:53:04.671Z,16.17
2019-04-21T00:58:20.833Z,16.28
2019-04-21T01:03:20.498Z,16.26
2019-04-21T01:08:21.761Z,16.12
2019-04-21T01:13:27.850Z,16.13
2019-04-21T01:18:27.655Z,16.05
2019-04-21T01:23:12.711Z,16.05
2019-04-21T01:28:29.253Z,15.90
2019-04-21T01:33:49.034Z,15.74
2019-04-21T01:38:52.409Z,15.72
2019-04-21T01:43:53.482Z,15.63
2019-04-21T01:48:49.365Z,15.51
2019-04-21T01:54:11.156Z,15.54
2019-04-21T01:58:57.591Z,15.52
2019-04-21T02:04:23.030Z,15.40
2019-04-21T02:09:23.231Z,15.40
2019-04-21T02:14:34.708Z,15.27
2019-04-21T02:19:25.937Z,15.11
2019-04-21T02:29:40.927Z,15.09
2019-04-21T02:39:57.381Z,14.92
2019-04-21T02:45:00.308Z,14.89
2019-04-21T02:50:09.624Z,14.90
2019-04-21T03:00:25.014Z,14.84
2019-04-21T03:05:50.499Z,14.87
2019-04-21T03:10:49.524Z,14.78
2019-04-21T03:20:53.204Z,14.72
2019-04-21T03:25:52.277Z,14.62
2019-04-21T03:31:25.531Z,14.48
2019-04-21T03:41:04.160Z,14.40
2019-04-21T03:46:08.232Z,14.39
2019-04-21T03:51:20.211Z,14.24
2019-04-21T03:56:43.864Z,14.18
2019-04-21T04:07:03.978Z,13.91
2019-04-21T04:11:54.704Z,13.94
2019-04-21T04:16:58.512Z,13.85
2019-04-21T04:22:04.284Z,13.81
2019-04-21T04:27:09.748Z,13.74
2019-04-21T04:31:56.920Z,13.61
2019-04-21T04:37:12.303Z,13.48
2019-04-21T04:42:31.929Z,13.52
2019-04-21T04:47:29.928Z,13.34
2019-04-21T04:57:51.296Z,13.44
2019-04-21T05:12:44.220Z,13.32
2019-04-21T05:17:52.552Z,13.41
2019-04-21T05:23:04.589Z,13.28
2019-04-21T05:27:48.270Z,13.53
2019-04-21T05:33:03.618Z,13.55
2019-04-21T05:38:10.613Z,13.61
2019-04-21T05:43:09.172Z,13.67
2019-04-21T05:48:28.362Z,13.82
2019-04-21T05:58:34.941Z,13.79
2019-04-21T06:03:44.780Z,13.91
2019-04-21T06:08:46.788Z,14.12
2019-04-21T06:18:55.933Z,14.16
2019-04-21T06:24:13.106Z,14.14
2019-04-21T06:28:56.859Z,14.34
2019-04-21T06:34:04.930Z,14.02
2019-04-21T06:49:14.293Z,14.67
2019-04-21T06:54:23.579Z,14.53
2019-04-21T06:59:29.693Z,14.86
2019-04-21T07:04:51.718Z,14.91
2019-04-21T07:09:36.507Z,14.99
2019-04-21T07:14:52.747Z,15.25
2019-04-21T07:19:49.869Z,15.40
2019-04-21T07:24:53.053Z,15.54
2019-04-21T07:29:54.971Z,15.63
2019-04-21T07:34:57.368Z,15.85
2019-04-21T07:39:54.649Z,15.83
2019-04-21T07:44:59.331Z,16.12
2019-04-21T07:50:17.767Z,16.18
2019-04-21T08:00:47.910Z,16.45
2019-04-21T08:05:28.004Z,16.51
2019-04-21T08:10:26.293Z,16.65
2019-04-21T08:15:35.251Z,16.67
2019-04-21T08:20:40.186Z,16.93
2019-04-21T08:25:54.658Z,16.99
2019-04-21T08:30:50.207Z,17.01
2019-04-21T08:36:11.670Z,17.24
2019-04-21T08:40:57.522Z,17.48
2019-04-21T08:46:00.439Z,17.47
2019-04-21T08:51:14.162Z,17.49
2019-04-21T08:56:40.329Z,17.68
2019-04-21T09:02:01.280Z,17.72
2019-04-21T09:12:10.967Z,18.36
2019-04-21T09:17:08.318Z,18.46
2019-04-21T09:22:16.812Z,18.59
2019-04-21T09:27:20.763Z,18.76
2019-04-21T09:32:12.369Z,18.83
2019-04-21T09:37:24.338Z,19.05
2019-04-21T09:42:16.784Z,19.20
2019-04-21T09:47:22.968Z,19.18
2019-04-21T09:52:26.613Z,19.26
2019-04-21T09:57:36.399Z,19.39
2019-04-21T10:02:38.539Z,19.68
2019-04-21T10:07:38.511Z,19.79
2019-04-21T10:12:38.126Z,19.84
2019-04-21T10:18:00.587Z,19.78
2019-04-21T10:23:03.104Z,19.99
2019-04-21T10:28:05.285Z,20.05
2019-04-21T10:33:08.352Z,20.17
2019-04-21T10:38:20.083Z,20.44
2019-04-21T10:43:17.656Z,20.39
2019-04-21T10:48:19.198Z,20.42
2019-04-21T10:53:27.455Z,20.86
2019-04-21T10:58:42.375Z,21.00
2019-04-21T11:04:10.021Z,21.15
2019-04-21T11:09:10.755Z,21.66
2019-04-21T11:14:13.520Z,21.85
2019-04-21T11:19:15.995Z,21.89
2019-04-21T11:24:18.309Z,21.86
2019-04-21T11:29:21.221Z,21.84
2019-04-21T11:34:23.496Z,21.92
2019-04-21T11:39:42.216Z,22.06
2019-04-21T11:44:37.225Z,22.34
2019-04-21T11:49:39.560Z,22.43
2019-04-21T11:54:42.779Z,22.50
2019-04-21T11:59:45.870Z,22.61
2019-04-21T12:04:48.072Z,23.19
2019-04-21T12:09:51.285Z,22.87
2019-04-21T12:14:54.240Z,22.92
2019-04-21T12:19:56.895Z,22.81
2019-04-21T12:24:59.113Z,22.85
2019-04-21T12:30:02.035Z,22.90
2019-04-21T12:35:05.998Z,23.33
2019-04-21T12:40:08.650Z,23.18
2019-04-21T12:45:11.323Z,23.15
2019-04-21T12:50:14.764Z,23.11
2019-04-21T12:55:17.677Z,23.08
2019-04-21T13:00:20.859Z,23.49
2019-04-21T13:05:22.921Z,23.53
2019-04-21T13:10:26.296Z,23.59
2019-04-21T13:15:29.340Z,23.81
2019-04-21T13:20:31.393Z,24.00
2019-04-21T13:25:37.808Z,24.16
2019-04-21T13:30:40.245Z,24.11
2019-04-21T13:35:42.275Z,24.28
2019-04-21T13:41:22.658Z,24.29
2019-04-21T13:46:15.469Z,24.50
2019-04-21T13:51:17.737Z,24.72
2019-04-21T13:56:20.438Z,24.80
2019-04-21T14:01:23.530Z,24.93
2019-04-21T14:06:26.646Z,24.85
2019-04-21T14:11:29.294Z,25.02
2019-04-21T14:16:32.008Z,25.11
2019-04-21T14:21:34.168Z,25.22
2019-04-21T14:26:36.363Z,25.30
2019-04-21T14:31:40.258Z,25.33
2019-04-21T14:36:42.423Z,25.50
2019-04-21T14:41:44.509Z,25.81
2019-04-21T14:46:57.448Z,25.88
2019-04-21T14:52:07.121Z,25.93
2019-04-21T14:57:09.522Z,26.03
2019-04-21T15:02:11.818Z,26.44
2019-04-21T15:07:14.989Z,39.77
2019-04-21T15:12:18.242Z,44.74
2019-04-21T15:17:22.512Z,46.75
2019-04-21T15:22:24.530Z,44.56
2019-04-21T15:27:27.507Z,41.06
2019-04-21T15:32:30.569Z,44.99
2019-04-21T15:37:33.781Z,34.50
2019-04-21T15:42:36.690Z,31.18
2019-04-21T15:47:40.121Z,31.38
2019-04-21T15:52:43.458Z,31.49
2019-04-21T15:58:05.279Z,29.71
2019-04-21T16:03:08.721Z,32.69
2019-04-21T16:08:12.082Z,31.77
2019-04-21T16:13:15.952Z,30.84
2019-04-21T16:18:18.289Z,35.98
2019-04-21T16:23:20.696Z,38.29
2019-04-21T16:28:23.508Z,38.70
2019-04-21T16:33:27.054Z,41.66
2019-04-21T16:38:29.380Z,41.70
2019-04-21T16:43:33.033Z,36.73
2019-04-21T16:48:35.803Z,29.35
2019-04-21T16:53:48.493Z,27.61
2019-04-21T16:58:54.786Z,26.24
2019-04-21T17:03:58.222Z,26.26
2019-04-21T17:09:01.034Z,25.57
2019-04-21T17:14:03.619Z,25.37
2019-04-21T17:19:14.712Z,25.10
2019-04-21T17:24:10.584Z,24.76
2019-04-21T17:29:12.866Z,24.57
2019-04-21T17:34:20.126Z,24.36
2019-04-21T17:39:20.970Z,24.05
2019-04-21T17:44:23.517Z,23.78
2019-04-21T17:49:26.250Z,23.71
2019-04-21T17:54:40.843Z,23.44
2019-04-21T18:00:04.181Z,23.29
2019-04-21T18:05:02.396Z,23.28
2019-04-21T18:10:04.701Z,23.08
2019-04-21T18:14:56.282Z,22.95
2019-04-21T18:19:55.111Z,22.73
2019-04-21T18:25:04.811Z,22.61
2019-04-21T18:30:06.345Z,22.43
2019-04-21T18:35:17.746Z,22.28
2019-04-21T18:40:27.468Z,22.15
2019-04-21T18:46:20.530Z,22.04
2019-04-21T18:51:18.677Z,21.93
2019-04-21T18:56:20.744Z,21.72
2019-04-21T19:01:27.862Z,21.62
2019-04-21T19:06:46.852Z,21.53
2019-04-21T19:11:55.228Z,21.40
2019-04-21T19:17:10.933Z,21.36
2019-04-21T19:22:00.154Z,21.18
2019-04-21T19:27:04.681Z,20.93
2019-04-21T19:32:08.814Z,20.83
2019-04-21T19:37:00.924Z,20.60
2019-04-21T19:42:10.526Z,20.55
2019-04-21T19:47:26.215Z,20.43
2019-04-21T19:52:20.368Z,20.33
2019-04-21T19:57:13.141Z,20.24
2019-04-21T20:02:16.497Z,20.25
2019-04-21T20:07:32.909Z,20.10
2019-04-21T20:12:47.412Z,19.99
2019-04-21T20:17:42.206Z,19.83
2019-04-21T20:22:36.380Z,19.57
2019-04-21T20:27:46.790Z,19.58
2019-04-21T20:32:56.563Z,19.37
2019-04-21T20:37:57.814Z,19.16
2019-04-21T20:43:09.198Z,18.99
2019-04-21T20:47:54.171Z,19.19
2019-04-21T20:53:11.283Z,18.91
2019-04-21T20:58:06.832Z,18.91
2019-04-21T21:03:24.803Z,18.85
2019-04-21T21:08:30.901Z,18.79
2019-04-21T21:13:36.710Z,18.74
2019-04-21T21:23:37.114Z,18.41
2019-04-21T21:28:37.660Z,18.44
2019-04-21T21:33:50.831Z,18.47
2019-04-21T21:38:56.029Z,18.14
2019-04-21T21:43:37.881Z,17.97
2019-04-21T21:48:54.117Z,18.09
2019-04-21T21:53:45.642Z,17.98
2019-04-21T21:58:49.662Z,17.95
2019-04-21T22:03:59.108Z,17.83
2019-04-21T22:08:56.654Z,17.91
2019-04-21T22:14:04.264Z,17.44
2019-04-21T22:19:18.759Z,17.70
2019-04-21T22:24:19.832Z,17.34
2019-04-21T22:29:11.904Z,17.44
2019-04-21T22:34:16.311Z,17.21
2019-04-21T22:39:34.930Z,16.78
2019-04-21T22:44:22.731Z,16.97
2019-04-21T22:49:26.848Z,16.80
2019-04-21T22:54:35.479Z,16.70
2019-04-21T22:59:34.155Z,16.67
2019-04-21T23:04:43.796Z,16.50
2019-04-21T23:09:40.824Z,16.49
2019-04-21T23:14:53.414Z,16.30
2019-04-21T23:20:10.594Z,16.29
2019-04-21T23:25:09.532Z,16.34
2019-04-21T23:30:23.869Z,16.49
2019-04-21T23:35:09.070Z,16.42
2019-04-21T23:40:12.665Z,16.27
2019-04-21T23:45:10.664Z,16.28
2019-04-21T23:50:25.345Z,16.15
2019-04-21T23:55:21.219Z,16.17
